Time;durP1;ratioP1;P1;durP2;ratioP2;P2;SDS_P1;SDS_P2;PMS_P1;PMS_P2;Temp;Humidity;BMP_temperature;BMP_pressure;BME280_temperature;BME280_humidity;BME280_pressure;Samples;Min_cycle;Max_cycle;Signal;HPM_P1;HPM_P2
2023/06/26 00:00:41;;;;;;;4.65;3.05;;;16.40;1.00;;;;;;5167424;28;20029;-86
2023/06/26 00:03:17;;;;;;;4.78;2.90;;;16.40;1.00;;;;;;5166486;28;20044;-85
2023/06/26 00:05:50;;;;;;;3.30;2.95;;;16.50;1.00;;;;;;5157731;28;20040;-85
2023/06/26 00:08:21;;;;;;;3.45;2.90;;;16.50;1.00;;;;;;5167941;28;20052;-85
2023/06/26 00:10:53;;;;;;;4.05;3.38;;;16.50;1.00;;;;;;5183358;28;20193;-85
2023/06/26 00:13:27;;;;;;;3.75;2.97;;;16.60;1.00;;;;;;5184553;28;20046;-86
2023/06/26 00:16:02;;;;;;;4.50;3.13;;;16.70;1.00;;;;;;5172551;28;20033;-86
2023/06/26 00:18:34;;;;;;;3.97;2.97;;;16.70;1.00;;;;;;5190180;28;20030;-86
2023/06/26 00:21:08;;;;;;;3.42;3.00;;;16.60;1.00;;;;;;5190854;28;20036;-86
2023/06/26 00:23:39;;;;;;;2.90;2.63;;;16.60;1.00;;;;;;5180604;28;20052;-85
2023/06/26 00:26:16;;;;;;;2.83;2.50;;;16.70;1.00;;;;;;5198125;28;20028;-87
2023/06/26 00:28:49;;;;;;;3.13;2.63;;;16.70;1.00;;;;;;5182451;28;20024;-85
2023/06/26 00:31:20;;;;;;;3.58;3.25;;;16.70;1.00;;;;;;5181133;28;20036;-86
2023/06/26 00:33:52;;;;;;;3.40;2.60;;;16.60;1.00;;;;;;5162999;28;20044;-85
2023/06/26 00:36:26;;;;;;;4.05;2.90;;;16.60;1.00;;;;;;5184838;28;20033;-85
2023/06/26 00:38:58;;;;;;;4.13;2.80;;;16.50;1.00;;;;;;5175607;28;20034;-85
2023/06/26 00:41:36;;;;;;;3.38;2.92;;;16.50;1.00;;;;;;5197273;28;20030;-85
2023/06/26 00:44:10;;;;;;;3.17;2.50;;;16.40;1.00;;;;;;5178509;28;20235;-86
2023/06/26 00:46:42;;;;;;;3.83;2.70;;;16.40;1.00;;;;;;5168153;28;20034;-85
2023/06/26 00:49:16;;;;;;;4.43;3.20;;;16.40;1.00;;;;;;5168277;28;20036;-86
2023/06/26 00:51:49;;;;;;;4.30;3.17;;;16.40;1.00;;;;;;5168151;28;20033;-86
2023/06/26 00:54:22;;;;;;;3.17;2.40;;;16.40;1.00;;;;;;5166560;28;20033;-86
2023/06/26 00:56:53;;;;;;;6.32;3.05;;;16.20;1.00;;;;;;5166899;28;20030;-86
2023/06/26 00:59:27;;;;;;;4.88;3.33;;;16.20;1.00;;;;;;5167107;28;20030;-86
2023/06/26 01:01:59;;;;;;;4.30;3.40;;;16.20;1.00;;;;;;5182706;28;20030;-86
2023/06/26 01:04:32;;;;;;;3.97;3.17;;;16.10;1.00;;;;;;5157720;28;20043;-86
2023/06/26 01:07:07;;;;;;;4.80;2.75;;;16.00;1.00;;;;;;5168242;28;20034;-86
2023/06/26 01:09:41;;;;;;;3.67;2.58;;;16.00;1.00;;;;;;5182789;28;20034;-86
2023/06/26 01:12:13;;;;;;;;;;;16.10;1.00;;;;;;5167150;28;20030;-86
2023/06/26 01:14:47;;;;;;;4.25;3.38;;;16.10;1.00;;;;;;5182773;28;19924;-87
2023/06/26 01:17:24;;;;;;;4.20;2.85;;;16.20;1.00;;;;;;5165547;28;20029;-86
2023/06/26 01:19:59;;;;;;;4.63;3.20;;;16.00;1.00;;;;;;5166851;28;20022;-86
2023/06/26 01:22:50;;;;;;;4.43;2.85;;;16.00;1.00;;;;;;5167043;28;20037;-85
2023/06/26 01:25:38;;;;;;;4.65;3.42;;;16.00;1.00;;;;;;5166413;28;20096;-86
2023/06/26 01:28:17;;;;;;;3.47;2.70;;;15.90;1.00;;;;;;5166208;28;20029;-87
2023/06/26 01:30:56;;;;;;;4.07;2.53;;;15.80;1.00;;;;;;5166752;28;20026;-87
2023/06/26 01:33:27;;;;;;;3.17;2.50;;;15.80;1.00;;;;;;5166318;28;20040;-86
2023/06/26 01:35:59;;;;;;;5.13;3.60;;;15.70;1.00;;;;;;5166476;28;20029;-86
2023/06/26 01:38:30;;;;;;;3.40;2.40;;;15.70;1.00;;;;;;5166250;28;20034;-87
2023/06/26 01:41:04;;;;;;;4.03;2.88;;;15.60;1.00;;;;;;5166005;28;20030;-87
2023/06/26 01:43:54;;;;;;;3.13;2.70;;;15.60;1.00;;;;;;5166045;28;20038;-88
2023/06/26 01:46:36;;;;;;;3.10;2.47;;;15.50;1.00;;;;;;5165980;28;20036;-86
2023/06/26 01:49:32;;;;;;;4.60;2.40;;;15.40;11.60;;;;;;5165617;28;20223;-86
2023/06/26 01:52:15;;;;;;;3.72;2.80;;;15.30;65.30;;;;;;5165801;28;20026;-87
2023/06/26 01:54:58;;;;;;;3.88;2.38;;;15.30;26.60;;;;;;5166598;28;20034;-88
2023/06/26 01:57:34;;;;;;;2.65;2.40;;;15.30;36.00;;;;;;5166126;28;20029;-87
2023/06/26 02:00:09;;;;;;;3.35;2.50;;;15.30;1.00;;;;;;5165265;28;20338;-85
2023/06/26 02:03:03;;;;;;;3.25;2.70;;;15.30;1.00;;;;;;5187991;28;20036;-88
2023/06/26 02:05:34;;;;;;;4.28;3.25;;;15.40;1.00;;;;;;5156052;28;20358;-85
2023/06/26 02:08:11;;;;;;;4.53;2.65;;;15.40;1.00;;;;;;5165823;28;20315;-87
2023/06/26 02:10:43;;;;;;;3.38;2.75;;;15.50;1.00;;;;;;5166367;28;20036;-86
2023/06/26 02:13:15;;;;;;;3.95;2.50;;;15.50;1.00;;;;;;5165847;28;20052;-88
2023/06/26 02:15:47;;;;;;;3.58;2.80;;;15.60;1.00;;;;;;5149706;28;20033;-86
2023/06/26 02:18:21;;;;;;;4.10;2.50;;;15.70;1.00;;;;;;5181689;28;20040;-86
2023/06/26 02:20:55;;;;;;;3.80;2.63;;;15.70;1.00;;;;;;5181732;28;20033;-88
2023/06/26 02:23:28;;;;;;;4.00;2.70;;;15.80;1.00;;;;;;5166190;28;20234;-86
2023/06/26 02:29:28;;;;;;;2.60;2.13;;;15.80;1.00;;;;;;5181884;28;20026;-86
2023/06/26 02:32:05;;;;;;;3.70;2.58;;;15.80;1.00;;;;;;5165321;28;20036;-86
2023/06/26 02:34:37;;;;;;;3.78;2.50;;;15.80;1.00;;;;;;5164840;28;20030;-88
2023/06/26 02:37:10;;;;;;;3.75;2.47;;;15.70;1.00;;;;;;5181454;28;20040;-88
2023/06/26 02:39:50;;;;;;;3.55;2.78;;;15.70;1.00;;;;;;5149492;28;20346;-87
2023/06/26 02:42:22;;;;;;;2.60;2.40;;;15.60;1.00;;;;;;5166075;28;20034;-87
2023/06/26 02:48:21;;;;;;;3.38;2.63;;;15.50;1.00;;;;;;5181419;28;20029;-87
2023/06/26 02:50:56;;;;;;;4.32;2.42;;;15.50;1.00;;;;;;5197457;28;20032;-87
2023/06/26 02:53:29;;;;;;;6.70;3.13;;;15.30;19.40;;;;;;5182021;28;20029;-85
2023/06/26 02:56:05;;;;;;;3.67;2.70;;;15.30;58.10;;;;;;5181266;28;20044;-86
2023/06/26 02:58:39;;;;;;;3.72;2.83;;;15.20;94.70;;;;;;5166356;28;20030;-88
2023/06/26 03:01:13;;;;;;;3.88;2.70;;;15.20;99.90;;;;;;5181372;28;20034;-87
2023/06/26 03:03:51;;;;;;;3.25;2.95;;;15.10;99.90;;;;;;5164903;28;20320;-87
2023/06/26 03:06:23;;;;;;;3.35;2.60;;;15.20;99.90;;;;;;5154580;28;20350;-87
2023/06/26 03:08:55;;;;;;;3.63;2.83;;;15.20;99.90;;;;;;5182768;28;20030;-87
2023/06/26 03:11:29;;;;;;;2.60;2.40;;;15.20;99.90;;;;;;5168477;28;20040;-86
2023/06/26 03:14:01;;;;;;;5.07;3.53;;;15.20;99.90;;;;;;5178781;28;20048;-86
2023/06/26 03:20:06;;;;;;;5.05;3.25;;;15.20;99.90;;;;;;5183185;28;20044;-85
2023/06/26 03:22:40;;;;;;;2.75;2.53;;;15.30;99.90;;;;;;5165961;28;20036;-85
2023/06/26 03:25:17;;;;;;;3.78;3.05;;;15.40;99.90;;;;;;5165919;28;20040;-86
2023/06/26 03:27:50;;;;;;;5.63;3.58;;;15.50;99.90;;;;;;5167467;28;20030;-86
2023/06/26 03:30:24;;;;;;;5.50;3.50;;;15.60;99.90;;;;;;5164975;28;20040;-86
2023/06/26 03:32:59;;;;;;;3.83;2.60;;;15.80;21.10;;;;;;5149013;28;20034;-86
2023/06/26 03:39:00;;;;;;;3.33;3.03;;;15.90;1.00;;;;;;5181078;28;20036;-87
2023/06/26 03:41:40;;;;;;;4.32;3.10;;;16.10;1.00;;;;;;5150481;28;20040;-88
2023/06/26 03:44:12;;;;;;;4.25;3.25;;;16.20;1.00;;;;;;5164001;28;20030;-87
2023/06/26 03:46:47;;;;;;;4.03;3.20;;;16.40;1.00;;;;;;5168023;28;20040;-86
2023/06/26 03:49:20;;;;;;;4.93;3.03;;;16.60;1.00;;;;;;5164952;28;20030;-87
2023/06/26 03:51:56;;;;;;;3.75;2.92;;;16.80;1.00;;;;;;5164351;28;20025;-86
2023/06/26 03:54:27;;;;;;;;;;;16.90;1.00;;;;;;5164586;28;20034;-86
2023/06/26 03:57:01;;;;;;;3.17;2.67;;;16.90;1.00;;;;;;5165085;28;19907;-87
2023/06/26 03:59:32;;;;;;;3.92;2.90;;;17.20;1.00;;;;;;5180433;28;20030;-87
2023/06/26 04:02:04;;;;;;;6.43;3.25;;;17.40;1.00;;;;;;5164659;28;20320;-87
2023/06/26 04:04:42;;;;;;;4.78;3.22;;;17.70;1.00;;;;;;5155442;28;20056;-88
2023/06/26 04:07:16;;;;;;;6.25;3.40;;;17.90;1.00;;;;;;5181448;28;20036;-87
2023/06/26 04:09:47;;;;;;;5.25;3.67;;;18.00;1.00;;;;;;5164882;28;20038;-87
2023/06/26 04:12:19;;;;;;;4.38;3.28;;;18.30;1.00;;;;;;5164844;28;20044;-88
2023/06/26 04:14:53;;;;;;;4.90;2.95;;;18.60;99.90;;;;;;5165539;28;20228;-87
2023/06/26 04:17:24;;;;;;;7.53;3.63;;;19.00;99.90;;;;;;5166006;28;20044;-86
2023/06/26 04:19:56;;;;;;;4.40;3.10;;;19.20;99.90;;;;;;5180469;28;20028;-86
2023/06/26 04:22:30;;;;;;;5.18;3.17;;;19.60;99.90;;;;;;5182349;28;20026;-87
2023/06/26 04:25:05;;;;;;;4.37;3.13;;;20.00;99.90;;;;;;5168268;28;20037;-85
2023/06/26 04:27:37;;;;;;;5.22;2.78;;;20.50;1.00;;;;;;5184062;28;20243;-86
2023/06/26 04:30:12;;;;;;;3.78;3.20;;;21.00;1.00;;;;;;5168159;28;20030;-86
2023/06/26 04:32:43;;;;;;;4.28;3.00;;;21.40;1.00;;;;;;5184338;28;20026;-85
2023/06/26 04:35:15;;;;;;;3.28;2.55;;;21.80;1.00;;;;;;5150918;28;20044;-85
2023/06/26 04:37:46;;;;;;;5.47;2.97;;;21.90;99.90;;;;;;5183446;28;20033;-85
2023/06/26 04:40:22;;;;;;;7.55;3.35;;;22.00;1.00;;;;;;5182453;28;20227;-84
2023/06/26 04:42:54;;;;;;;3.40;2.60;;;22.30;1.00;;;;;;5181576;28;20036;-84
2023/06/26 04:48:57;;;;;;;3.13;2.83;;;22.40;99.90;;;;;;5184086;28;20026;-87
2023/06/26 04:51:30;;;;;;;6.15;3.15;;;22.50;99.90;;;;;;5182820;28;20213;-87
2023/06/26 04:54:04;;;;;;;5.78;3.03;;;22.60;99.90;;;;;;5166528;28;20037;-86
2023/06/26 04:56:36;;;;;;;4.45;2.70;;;22.50;99.90;;;;;;5182623;28;20346;-85
2023/06/26 04:59:14;;;;;;;3.35;2.85;;;22.70;99.90;;;;;;5166729;28;20033;-86
2023/06/26 05:01:48;;;;;;;3.65;2.85;;;22.70;99.90;;;;;;5167245;28;20036;-86
2023/06/26 05:04:24;;;;;;;4.32;2.95;;;22.70;99.90;;;;;;5179995;28;20038;-86
2023/06/26 05:06:56;;;;;;;3.72;3.28;;;22.80;99.90;;;;;;5168133;28;20215;-85
2023/06/26 05:09:32;;;;;;;5.07;2.72;;;23.00;1.00;;;;;;5167205;28;20034;-88
2023/06/26 05:12:04;;;;;;;4.47;2.50;;;23.40;1.00;;;;;;5169472;28;20025;-87
2023/06/26 05:14:35;;;;;;;4.68;3.05;;;23.20;1.00;;;;;;5201727;23;20311;-72
2023/06/26 05:17:07;;;;;;;4.72;3.38;;;23.10;1.00;;;;;;5195596;28;20045;-73
2023/06/26 05:19:38;;;;;;;3.95;3.25;;;22.90;1.00;;;;;;5218292;28;20377;-72
2023/06/26 05:22:13;;;;;;;3.15;2.38;;;23.00;1.00;;;;;;5207324;28;20111;-72
2023/06/26 05:24:47;;;;;;;3.92;2.80;;;23.00;99.90;;;;;;5192683;28;20033;-72
2023/06/26 05:27:21;;;;;;;3.60;2.85;;;22.90;99.90;;;;;;5175291;28;20049;-72
2023/06/26 05:29:58;;;;;;;3.92;2.63;;;23.10;99.90;;;;;;5196226;28;20198;-73
2023/06/26 05:32:42;;;;;;;3.28;2.50;;;22.90;93.30;;;;;;5181270;28;20043;-71
2023/06/26 05:35:14;;;;;;;3.50;2.78;;;22.90;99.90;;;;;;5183168;28;20266;-75
2023/06/26 05:37:48;;;;;;;4.88;3.05;;;22.80;99.90;;;;;;5196664;28;20021;-73
2023/06/26 05:40:20;;;;;;;10.63;3.23;;;23.00;99.90;;;;;;5194480;28;20072;-74
2023/06/26 05:42:55;;;;;;;3.97;2.90;;;23.00;99.90;;;;;;5201754;28;20453;-73
2023/06/26 05:45:26;;;;;;;4.07;3.15;;;23.20;97.50;;;;;;5198658;28;20041;-74
2023/06/26 05:47:57;;;;;;;5.72;2.60;;;23.30;91.20;;;;;;5182104;28;20293;-74
2023/06/26 05:50:29;;;;;;;3.42;2.75;;;23.70;1.00;;;;;;5199897;28;20215;-75
2023/06/26 05:53:03;;;;;;;3.75;2.55;;;23.90;5.20;;;;;;5198060;28;20048;-73
2023/06/26 05:55:34;;;;;;;3.55;2.60;;;23.70;1.00;;;;;;5200134;28;20305;-72
2023/06/26 05:58:13;;;;;;;4.00;3.00;;;23.90;1.00;;;;;;5180054;28;20318;-72
2023/06/26 06:00:44;;;;;;;3.90;2.85;;;23.90;1.00;;;;;;5176847;28;20063;-72
2023/06/26 06:03:17;;;;;;;3.03;2.40;;;23.90;1.00;;;;;;5198999;28;20563;-73
2023/06/26 06:05:49;;;;;;;3.47;2.77;;;24.10;99.90;;;;;;5180758;28;20153;-72
2023/06/26 06:08:22;;;;;;;3.50;2.75;;;24.20;99.90;;;;;;5159204;28;20374;-73
2023/06/26 06:10:55;;;;;;;4.18;2.85;;;23.80;99.90;;;;;;5172887;28;20241;-72
2023/06/26 06:13:26;;;;;;;3.92;2.78;;;23.80;99.90;;;;;;5178448;28;20044;-73
2023/06/26 06:15:57;;;;;;;4.28;2.30;;;24.00;99.90;;;;;;5179706;28;20040;-73
2023/06/26 06:18:33;;;;;;;3.45;2.33;;;24.30;99.90;;;;;;5184026;28;20304;-73
2023/06/26 06:21:11;;;;;;;3.35;2.38;;;24.70;99.90;;;;;;5181084;28;20048;-74
2023/06/26 06:23:42;;;;;;;3.80;2.30;;;25.10;1.00;;;;;;5160800;28;20036;-74
2023/06/26 06:26:16;;;;;;;3.33;2.20;;;24.60;1.00;;;;;;5184314;28;20039;-73
2023/06/26 06:28:50;;;;;;;2.97;1.75;;;24.40;1.00;;;;;;5176794;28;20034;-74
2023/06/26 06:31:21;;;;;;;3.30;2.03;;;24.30;1.00;;;;;;5176843;28;20107;-73
2023/06/26 06:33:53;;;;;;;3.85;2.10;;;24.20;99.90;;;;;;5178986;28;20044;-74
2023/06/26 06:36:27;;;;;;;2.55;2.30;;;24.20;99.90;;;;;;5174774;28;20508;-72
2023/06/26 06:39:04;;;;;;;3.28;2.05;;;24.60;99.90;;;;;;5178126;28;20037;-73
2023/06/26 06:41:35;;;;;;;3.33;2.25;;;25.30;99.90;;;;;;5178978;28;20030;-73
2023/06/26 06:44:06;;;;;;;2.65;1.95;;;25.10;99.90;;;;;;5183587;28;20039;-73
2023/06/26 06:46:40;;;;;;;3.03;2.20;;;25.30;99.90;;;;;;5184647;28;20041;-73
2023/06/26 06:49:19;;;;;;;3.25;2.65;;;26.00;99.90;;;;;;5187253;28;20220;-73
2023/06/26 06:51:50;;;;;;;3.08;2.33;;;26.30;1.00;;;;;;5163026;28;20045;-72
2023/06/26 06:54:29;;;;;;;3.50;2.33;;;26.00;1.00;;;;;;5188477;28;20033;-73
2023/06/26 06:57:03;;;;;;;2.40;1.90;;;25.70;1.00;;;;;;5175778;28;20059;-72
2023/06/26 06:59:34;;;;;;;2.88;2.25;;;25.40;1.00;;;;;;5191664;28;20714;-74
2023/06/26 07:02:08;;;;;;;2.38;2.03;;;26.10;1.00;;;;;;5187620;28;20361;-74
2023/06/26 07:04:39;;;;;;;3.45;2.60;;;26.20;1.00;;;;;;5169706;28;20542;-72
2023/06/26 07:07:17;;;;;;;3.13;2.47;;;26.40;60.20;;;;;;5189251;28;20447;-75
2023/06/26 07:09:49;;;;;;;3.13;2.38;;;25.90;1.00;;;;;;5191485;28;20021;-74
2023/06/26 07:12:20;;;;;;;3.42;2.30;;;25.70;1.00;;;;;;5202112;28;20037;-73
2023/06/26 07:14:53;;;;;;;3.67;2.53;;;25.70;13.90;;;;;;5197404;28;20035;-73
2023/06/26 07:17:27;;;;;;;4.43;3.00;;;26.00;6.10;;;;;;5181355;28;20018;-72
2023/06/26 07:19:59;;;;;;;3.13;2.28;;;26.30;1.00;;;;;;5195981;28;20031;-74
2023/06/26 07:22:33;;;;;;;3.63;2.65;;;27.00;1.00;;;;;;5193110;28;20034;-75
2023/06/26 07:25:13;;;;;;;2.97;2.17;;;27.00;1.00;;;;;;5183123;28;20042;-73
2023/06/26 07:27:45;;;;;;;2.08;1.80;;;27.50;1.00;;;;;;5186877;28;20037;-74
2023/06/26 07:30:16;;;;;;;2.33;1.95;;;27.00;1.00;;;;;;5183474;28;20040;-74
2023/06/26 07:32:47;;;;;;;3.33;2.40;;;27.00;1.00;;;;;;5187485;28;20021;-75
2023/06/26 07:35:22;;;;;;;2.65;2.22;;;27.60;1.00;;;;;;5199270;28;20041;-75
2023/06/26 07:37:53;;;;;;;2.85;1.73;;;28.20;1.00;;;;;;5165291;28;20581;-75
2023/06/26 07:40:25;;;;;;;3.25;1.70;;;28.90;1.00;;;;;;5188069;28;20029;-74
2023/06/26 07:42:58;;;;;;;2.10;1.90;;;28.20;99.90;;;;;;5180663;28;20723;-71
2023/06/26 07:45:29;;;;;;;2.22;2.03;;;27.80;99.90;;;;;;5198084;28;20033;-72
2023/06/26 07:48:08;;;;;;;3.83;2.50;;;27.70;39.50;;;;;;5167810;28;20454;-72
2023/06/26 07:50:40;;;;;;;2.05;1.83;;;27.90;14.70;;;;;;5180008;28;20033;-74
2023/06/26 07:53:11;;;;;;;3.78;2.20;;;28.10;1.00;;;;;;5201170;28;20051;-73
2023/06/26 07:55:43;;;;;;;2.75;2.22;;;28.10;1.00;;;;;;5199666;28;20033;-73
2023/06/26 07:58:14;;;;;;;4.32;2.25;;;28.60;1.00;;;;;;5198145;28;20025;-72
2023/06/26 08:00:49;;;;;;;3.38;2.35;;;29.10;99.90;;;;;;5196221;28;20049;-73
2023/06/26 08:03:25;;;;;;;3.35;2.50;;;29.40;91.10;;;;;;5197994;28;20234;-72
2023/06/26 08:05:57;;;;;;;3.05;2.20;;;28.50;1.00;;;;;;5174835;28;20065;-71
2023/06/26 08:08:28;;;;;;;2.85;2.30;;;28.20;1.00;;;;;;5175426;28;20017;-74
2023/06/26 08:11:00;;;;;;;3.40;2.53;;;28.40;1.00;;;;;;5163959;28;20048;-72
2023/06/26 08:13:34;;;;;;;3.72;2.20;;;28.60;1.00;;;;;;5164320;28;20053;-72
2023/06/26 08:16:05;;;;;;;3.42;2.22;;;28.70;15.20;;;;;;5147011;28;20045;-72
2023/06/26 08:18:37;;;;;;;2.97;2.30;;;28.40;99.90;;;;;;5185511;28;20040;-73
2023/06/26 08:21:09;;;;;;;3.13;2.22;;;28.50;40.70;;;;;;5199993;28;20059;-74
2023/06/26 08:23:42;;;;;;;2.40;2.20;;;28.70;1.00;;;;;;5168976;28;20034;-74
2023/06/26 08:26:14;;;;;;;4.25;2.30;;;28.20;1.00;;;;;;5173791;28;20390;-73
2023/06/26 08:28:48;;;;;;;2.67;1.92;;;28.30;1.00;;;;;;5180611;28;20162;-73
2023/06/26 08:31:22;;;;;;;2.67;2.13;;;28.50;1.00;;;;;;5164436;28;20029;-73
2023/06/26 08:33:54;;;;;;;3.40;2.30;;;28.70;1.00;;;;;;5178308;28;20029;-73
2023/06/26 08:36:31;;;;;;;2.97;2.13;;;28.90;1.00;;;;;;5165662;28;20041;-74
2023/06/26 08:39:04;;;;;;;2.88;2.13;;;29.10;1.00;;;;;;5200129;28;20144;-73
2023/06/26 08:41:36;;;;;;;3.17;2.58;;;28.30;1.00;;;;;;5169239;28;20038;-72
2023/06/26 08:44:12;;;;;;;3.53;2.67;;;28.60;1.00;;;;;;5167724;28;20357;-74
2023/06/26 08:46:44;;;;;;;3.10;2.40;;;29.30;1.00;;;;;;5181105;28;20046;-73
2023/06/26 08:49:25;;;;;;;3.70;2.60;;;29.30;1.00;;;;;;5184327;28;20048;-73
2023/06/26 08:52:08;;;;;;;2.75;2.30;;;29.40;1.00;;;;;;5168543;28;20040;-73
2023/06/26 08:54:49;;;;;;;3.92;2.75;;;30.20;1.00;;;;;;5183589;28;20486;-75
2023/06/26 08:57:22;;;;;;;3.55;2.65;;;29.10;1.00;;;;;;5186296;28;20038;-73
2023/06/26 08:59:54;;;;;;;3.80;2.60;;;28.60;1.00;;;;;;5201235;28;20037;-72
2023/06/26 09:02:26;;;;;;;3.25;2.38;;;28.70;1.00;;;;;;5193917;28;20021;-73
2023/06/26 09:04:57;;;;;;;3.55;2.40;;;29.20;1.00;;;;;;5162687;28;20262;-74
2023/06/26 09:07:29;;;;;;;3.05;2.70;;;29.00;1.00;;;;;;5179212;28;20215;-73
2023/06/26 09:10:02;;;;;;;2.97;2.38;;;28.50;1.00;;;;;;5190339;28;20041;-73
2023/06/26 09:12:34;;;;;;;3.00;2.50;;;29.30;1.00;;;;;;5184443;28;20052;-73
2023/06/26 09:15:07;;;;;;;3.20;2.47;;;28.90;1.00;;;;;;5186385;28;20037;-73
2023/06/26 09:17:50;;;;;;;2.88;2.47;;;28.70;1.00;;;;;;5189176;28;20047;-73
2023/06/26 09:20:24;;;;;;;3.35;2.25;;;28.80;1.00;;;;;;5193912;28;20044;-71
2023/06/26 09:22:56;;;;;;;4.18;2.72;;;29.00;1.00;;;;;;5177219;28;20056;-72
2023/06/26 09:25:28;;;;;;;3.72;2.65;;;29.40;1.00;;;;;;5164345;28;20341;-72
2023/06/26 09:27:59;;;;;;;3.55;2.90;;;29.30;1.00;;;;;;5198917;28;20037;-72
2023/06/26 09:30:33;;;;;;;3.17;2.30;;;29.00;1.00;;;;;;5155850;28;20255;-72
2023/06/26 09:33:18;;;;;;;3.50;3.00;;;29.10;1.00;;;;;;5173543;28;20211;-72
2023/06/26 09:35:49;;;;;;;3.10;2.45;;;30.20;1.00;;;;;;5188706;28;20045;-72
2023/06/26 09:38:21;;;;;;;4.25;2.88;;;29.60;1.00;;;;;;5180479;28;20518;-72
2023/06/26 09:40:52;;;;;;;3.08;2.40;;;29.50;1.00;;;;;;5166391;28;20029;-72
2023/06/26 09:43:24;;;;;;;2.78;2.50;;;29.90;1.00;;;;;;5177713;28;20379;-73
2023/06/26 09:45:58;;;;;;;4.53;2.30;;;29.90;1.00;;;;;;5178335;28;20045;-72
2023/06/26 09:48:30;;;;;;;2.78;2.50;;;29.40;1.00;;;;;;5160947;28;20029;-71
2023/06/26 09:51:01;;;;;;;2.78;2.03;;;29.20;1.00;;;;;;5162825;28;20253;-71
2023/06/26 09:53:38;;;;;;;2.97;2.38;;;29.20;1.00;;;;;;5149887;28;20037;-74
2023/06/26 09:56:17;;;;;;;3.78;2.65;;;28.50;1.00;;;;;;5192723;28;20033;-72
2023/06/26 09:58:52;;;;;;;4.78;2.20;;;28.50;1.00;;;;;;5180335;28;20308;-73
2023/06/26 10:01:27;;;;;;;2.97;2.15;;;28.80;1.00;;;;;;5189540;28;20037;-71
2023/06/26 10:04:02;;;;;;;3.10;2.55;;;29.10;1.00;;;;;;5190286;28;20261;-73
2023/06/26 10:06:47;;;;;;;3.03;2.55;;;29.40;1.00;;;;;;5151125;28;20060;-73
2023/06/26 10:09:20;;;;;;;2.45;2.10;;;30.10;1.00;;;;;;5175223;28;20049;-73
2023/06/26 10:11:57;;;;;;;2.80;2.50;;;30.80;1.00;;;;;;5197423;28;20270;-72
2023/06/26 10:14:34;;;;;;;4.13;2.28;;;30.30;1.00;;;;;;5189895;28;20231;-74
2023/06/26 10:17:14;;;;;;;2.47;2.10;;;30.20;1.00;;;;;;5187229;28;20248;-72
2023/06/26 10:19:47;;;;;;;3.88;2.60;;;30.90;1.00;;;;;;5177746;28;20036;-71
2023/06/26 10:22:21;;;;;;;2.38;2.10;;;31.30;1.00;;;;;;5201409;28;20025;-74
2023/06/26 10:24:56;;;;;;;3.45;2.30;;;31.90;1.00;;;;;;5196817;28;20039;-73
2023/06/26 10:27:36;;;;;;;2.65;2.22;;;31.70;1.00;;;;;;5198154;28;20221;-73
2023/06/26 10:30:14;;;;;;;3.40;2.15;;;31.30;1.00;;;;;;5191302;28;20516;-73
2023/06/26 10:32:46;;;;;;;3.50;2.70;;;32.10;1.00;;;;;;5191565;28;20043;-72
2023/06/26 10:35:18;;;;;;;3.35;2.42;;;31.40;1.00;;;;;;5175330;28;20345;-72
2023/06/26 10:37:53;;;;;;;3.33;2.22;;;31.60;1.00;;;;;;5165514;28;20052;-72
2023/06/26 10:40:45;;;;;;;2.47;2.10;;;32.30;1.00;;;;;;5182105;28;20044;-72
2023/06/26 10:43:48;;;;;;;2.88;2.22;;;33.90;1.00;;;;;;5162272;28;20697;-76
2023/06/26 10:46:24;;;;;;;2.13;1.77;;;34.50;1.00;;;;;;5195440;28;20036;-74
2023/06/26 10:49:00;;;;;;;2.10;1.73;;;34.50;1.00;;;;;;5160585;28;20147;-74
2023/06/26 10:51:31;;;;;;;2.47;2.00;;;34.90;1.00;;;;;;5162313;28;20037;-74
2023/06/26 10:54:05;;;;;;;3.08;2.33;;;32.40;99.90;;;;;;5173524;28;20040;-74
2023/06/26 10:56:48;;;;;;;3.00;2.45;;;31.70;99.90;;;;;;5158934;28;20026;-74
2023/06/26 10:59:21;;;;;;;4.55;2.28;;;33.10;99.90;;;;;;5171661;28;20468;-74
2023/06/26 11:02:02;;;;;;;2.72;2.22;;;32.50;1.00;;;;;;5175093;28;20330;-73
2023/06/26 11:04:48;;;;;;;2.00;1.80;;;32.90;99.90;;;;;;5157706;28;20045;-73
2023/06/26 11:07:24;;;;;;;2.65;2.33;;;33.30;1.00;;;;;;5184178;28;20042;-74
2023/06/26 11:09:58;;;;;;;2.72;2.00;;;34.10;99.90;;;;;;5158020;28;20496;-76
2023/06/26 11:12:43;;;;;;;2.35;2.15;;;35.20;99.90;;;;;;5177476;28;20350;-73
2023/06/26 11:15:19;;;;;;;3.58;3.20;;;36.30;99.90;;;;;;5174400;28;20037;-73
2023/06/26 11:17:51;;;;;;;3.30;2.25;;;35.70;1.00;;;;;;5136119;28;20046;-73
2023/06/26 11:20:23;;;;;;;2.38;2.17;;;34.70;1.00;;;;;;5184755;28;20326;-73
2023/06/26 11:22:57;;;;;;;2.42;2.22;;;35.30;1.00;;;;;;5168166;28;20043;-73
2023/06/26 11:25:29;;;;;;;2.55;2.05;;;34.60;99.90;;;;;;5150561;28;20041;-73
2023/06/26 11:28:00;;;;;;;2.22;2.03;;;34.60;99.90;;;;;;5168459;28;20037;-74
2023/06/26 11:30:32;;;;;;;2.78;2.03;;;35.30;99.90;;;;;;5179638;28;20037;-74
2023/06/26 11:33:12;;;;;;;2.15;1.95;;;35.20;99.90;;;;;;5153465;28;20029;-73
2023/06/26 11:35:46;;;;;;;2.88;2.67;;;35.20;1.00;;;;;;5187786;28;20037;-74
2023/06/26 11:38:20;;;;;;;3.03;2.50;;;34.30;1.00;;;;;;5197246;28;20030;-73
2023/06/26 11:40:54;;;;;;;3.17;2.50;;;34.30;1.00;;;;;;5204772;28;20033;-73
2023/06/26 11:43:25;;;;;;;2.75;2.38;;;35.50;1.00;;;;;;5203020;28;20222;-73
2023/06/26 11:45:57;;;;;;;2.72;2.50;;;36.90;1.00;;;;;;5148352;28;20041;-75
2023/06/26 11:48:30;;;;;;;3.47;2.58;;;35.50;1.00;;;;;;5202757;28;20039;-73
2023/06/26 11:51:05;;;;;;;2.72;2.30;;;33.90;1.00;;;;;;5172364;28;20456;-72
2023/06/26 11:53:44;;;;;;;3.30;2.50;;;32.80;1.00;;;;;;5186556;28;20029;-72
2023/06/26 11:56:17;;;;;;;3.47;2.55;;;33.70;1.00;;;;;;5152474;28;20045;-73
2023/06/26 11:59:02;;;;;;;4.07;3.33;;;34.10;99.90;;;;;;5180932;28;20037;-73
2023/06/26 12:01:39;;;;;;;2.92;2.63;;;34.40;99.90;;;;;;5202449;28;20028;-73
2023/06/26 12:04:13;;;;;;;4.47;2.35;;;34.00;1.00;;;;;;5193391;28;20061;-72
2023/06/26 12:06:57;;;;;;;3.03;2.20;;;34.30;1.00;;;;;;5184923;28;20376;-73
2023/06/26 12:09:33;;;;;;;2.67;2.10;;;34.40;1.00;;;;;;5168299;28;20034;-74
2023/06/26 12:12:05;;;;;;;2.88;2.00;;;34.50;1.00;;;;;;5199990;28;20363;-72
2023/06/26 12:14:42;;;;;;;2.72;2.47;;;35.40;1.00;;;;;;5188512;28;20494;-74
2023/06/26 12:17:17;;;;;;;3.45;2.17;;;35.10;1.00;;;;;;5150544;28;20354;-73
2023/06/26 12:19:49;;;;;;;2.75;2.13;;;37.00;5.40;;;;;;5167007;28;20037;-73
2023/06/26 12:22:20;;;;;;;2.28;1.95;;;37.50;99.90;;;;;;5154416;28;20030;-74
2023/06/26 12:24:56;;;;;;;2.67;2.47;;;38.20;99.90;;;;;;5167778;28;20040;-73
2023/06/26 12:27:28;;;;;;;2.33;2.13;;;38.00;1.00;;;;;;5187667;28;20041;-72
2023/06/26 12:30:07;;;;;;;2.35;2.15;;;37.50;99.90;;;;;;5163984;28;20037;-74
2023/06/26 12:32:38;;;;;;;2.65;2.00;;;35.50;99.90;;;;;;5171628;28;21009;-73
2023/06/26 12:35:10;;;;;;;2.20;2.00;;;35.40;99.90;;;;;;5199866;28;20040;-73
2023/06/26 12:37:44;;;;;;;2.50;2.15;;;37.10;99.90;;;;;;5168598;28;20041;-73
2023/06/26 12:40:21;;;;;;;3.08;2.75;;;37.40;99.90;;;;;;5194521;28;20615;-73
2023/06/26 12:42:53;;;;;;;2.20;2.00;;;36.30;99.90;;;;;;5202869;28;20027;-72
2023/06/26 12:45:25;;;;;;;2.70;2.50;;;36.30;1.00;;;;;;5207089;28;20041;-73
2023/06/26 12:48:08;;;;;;;;;;;36.70;1.00;;;;;;5205806;28;20025;-73
2023/06/26 12:50:50;;;;;;;6.47;2.65;;;37.10;1.00;;;;;;5205868;28;19916;-73
2023/06/26 12:53:23;;;;;;;2.47;2.28;;;38.60;50.90;;;;;;5206291;28;20340;-72
2023/06/26 12:55:55;;;;;;;3.25;2.58;;;39.70;99.90;;;;;;5206207;28;20029;-74
2023/06/26 12:58:28;;;;;;;3.70;2.65;;;37.70;99.90;;;;;;5201906;28;20075;-72
2023/06/26 13:01:00;;;;;;;3.75;2.67;;;36.40;99.90;;;;;;5201770;28;20022;-72
2023/06/26 13:03:32;;;;;;;3.22;2.55;;;35.50;53.90;;;;;;5175318;28;20033;-73
2023/06/26 13:06:07;;;;;;;3.10;2.38;;;35.60;99.90;;;;;;5169722;28;20053;-73
2023/06/26 13:08:38;;;;;;;2.45;2.25;;;34.90;1.00;;;;;;5149893;28;20043;-72
2023/06/26 13:11:10;;;;;;;3.95;2.60;;;34.80;99.90;;;;;;5195254;28;20541;-73
2023/06/26 13:13:42;;;;;;;2.55;2.10;;;36.00;32.10;;;;;;5200487;28;20033;-72
2023/06/26 13:16:14;;;;;;;2.95;2.33;;;36.70;99.90;;;;;;5176347;28;20052;-74
2023/06/26 13:18:45;;;;;;;3.00;2.63;;;36.60;1.00;;;;;;5209838;28;20314;-73
2023/06/26 13:21:17;;;;;;;3.42;2.80;;;36.60;1.00;;;;;;5193608;28;20045;-73
2023/06/26 13:23:49;;;;;;;4.82;2.95;;;36.80;1.00;;;;;;5202862;28;20037;-72
2023/06/26 13:26:21;;;;;;;5.22;3.25;;;35.80;1.00;;;;;;5187210;28;20064;-73
2023/06/26 13:28:53;;;;;;;3.05;2.70;;;36.90;1.00;;;;;;5194338;28;20442;-72
2023/06/26 13:31:24;;;;;;;3.50;2.70;;;38.90;1.00;;;;;;5168617;28;20045;-73
2023/06/26 13:33:58;;;;;;;5.15;2.78;;;39.90;1.00;;;;;;5188444;28;20052;-72
2023/06/26 13:36:30;;;;;;;3.10;2.80;;;39.60;6.30;;;;;;5190206;28;20366;-73
2023/06/26 13:39:03;;;;;;;3.10;2.47;;;38.00;1.00;;;;;;5188838;28;20045;-73
2023/06/26 13:41:35;;;;;;;2.83;2.63;;;38.60;7.40;;;;;;5202881;28;20037;-73
2023/06/26 13:44:07;;;;;;;3.20;2.90;;;38.20;1.00;;;;;;5192194;28;20050;-73
2023/06/26 13:46:39;;;;;;;3.28;2.83;;;37.90;1.00;;;;;;5201343;28;20029;-72
2023/06/26 13:49:11;;;;;;;3.13;2.83;;;38.30;99.90;;;;;;5190611;28;20052;-73